createdAt,value
2023-08-17T00:02:17.492Z,98822.00
2023-08-17T00:04:48.499Z,98829.00
2023-08-17T00:07:19.394Z,98816.00
2023-08-17T00:09:50.317Z,98825.00
2023-08-17T00:12:21.218Z,98826.00
2023-08-17T00:14:53.404Z,98816.00
2023-08-17T00:17:24.532Z,98822.00
2023-08-17T00:19:55.794Z,98830.00
2023-08-17T00:22:26.709Z,98827.00
2023-08-17T00:24:57.621Z,98825.00
2023-08-17T00:27:28.494Z,98821.00
2023-08-17T00:29:59.447Z,98819.00
2023-08-17T00:32:30.366Z,98814.00
2023-08-17T00:35:01.522Z,98810.00
2023-08-17T00:37:32.454Z,98810.00
2023-08-17T00:40:03.448Z,98830.00
2023-08-17T00:42:34.408Z,98799.00
2023-08-17T00:45:06.027Z,98810.00
2023-08-17T00:47:37.585Z,98797.00
2023-08-17T00:50:09.125Z,98798.00
2023-08-17T00:52:40.309Z,98796.00
2023-08-17T00:55:12.570Z,98802.00
2023-08-17T00:57:43.742Z,98800.00
2023-08-17T01:00:18.629Z,98800.00
2023-08-17T01:02:51.055Z,98801.00
2023-08-17T01:05:22.887Z,98802.00
2023-08-17T01:07:53.991Z,98795.00
2023-08-17T01:10:29.145Z,98791.00
2023-08-17T01:13:12.932Z,98796.00
2023-08-17T01:15:51.899Z,98817.00
2023-08-17T01:18:28.530Z,98803.00
2023-08-17T01:20:59.972Z,98808.00
2023-08-17T01:23:31.356Z,98795.00
2023-08-17T01:26:02.447Z,98791.00
2023-08-17T01:28:33.604Z,98796.00
2023-08-17T01:31:14.892Z,98782.00
2023-08-17T01:33:55.024Z,98779.00
2023-08-17T01:36:42.175Z,98794.00
2023-08-17T01:39:14.185Z,98786.00
2023-08-17T01:41:48.079Z,98783.00
2023-08-17T01:44:19.026Z,98782.00
2023-08-17T01:46:50.177Z,98795.00
2023-08-17T01:49:21.204Z,98781.00
2023-08-17T01:51:52.165Z,98777.00
2023-08-17T01:54:23.314Z,98782.00
2023-08-17T01:56:54.211Z,98798.00
2023-08-17T01:59:25.178Z,98780.00
2023-08-17T02:01:56.128Z,98775.00
2023-08-17T02:04:27.141Z,98775.00
2023-08-17T02:06:58.086Z,98770.00
2023-08-17T02:09:29.092Z,98770.00
2023-08-17T02:12:00.060Z,98766.00
2023-08-17T02:14:30.952Z,98786.00
2023-08-17T02:17:02.022Z,98765.00
2023-08-17T02:19:34.063Z,98759.00
2023-08-17T02:22:05.993Z,98760.00
2023-08-17T02:24:36.932Z,98775.00
2023-08-17T02:27:10.094Z,98768.00
2023-08-17T02:29:41.056Z,98754.00
2023-08-17T02:32:12.076Z,98767.00
2023-08-17T02:34:43.006Z,98756.00
2023-08-17T02:37:13.889Z,98757.00
2023-08-17T02:39:44.915Z,98746.00
2023-08-17T02:42:15.878Z,98749.00
2023-08-17T02:44:46.775Z,98746.00
2023-08-17T02:47:17.795Z,98737.00
2023-08-17T02:49:50.553Z,98749.00
2023-08-17T02:52:21.500Z,98744.00
2023-08-17T02:54:52.554Z,98750.00
2023-08-17T02:57:23.711Z,98736.00
2023-08-17T02:59:55.098Z,98744.00
2023-08-17T03:02:26.242Z,98740.00
2023-08-17T03:04:57.192Z,98733.00
2023-08-17T03:07:28.448Z,98735.00
2023-08-17T03:09:59.453Z,98718.00
2023-08-17T03:12:30.356Z,98721.00
2023-08-17T03:15:01.550Z,98721.00
2023-08-17T03:17:32.531Z,98719.00
2023-08-17T03:20:06.972Z,98715.00
2023-08-17T03:22:37.927Z,98714.00
2023-08-17T03:25:09.677Z,98714.00
2023-08-17T03:27:40.570Z,98717.00
2023-08-17T03:30:11.825Z,98712.00
2023-08-17T03:32:42.802Z,98719.00
2023-08-17T03:35:14.344Z,98730.00
2023-08-17T03:37:46.276Z,98702.00
2023-08-17T03:40:17.309Z,98703.00
2023-08-17T03:42:48.199Z,98703.00
2023-08-17T03:45:19.685Z,98715.00
2023-08-17T03:47:50.556Z,98713.00
2023-08-17T03:50:21.503Z,98715.00
2023-08-17T03:52:52.469Z,98728.00
2023-08-17T03:55:23.653Z,98726.00
2023-08-17T03:57:54.582Z,98728.00
2023-08-17T04:00:25.526Z,98721.00
2023-08-17T04:02:56.541Z,98730.00
2023-08-17T04:05:28.866Z,98728.00
2023-08-17T04:08:03.652Z,98731.00
2023-08-17T04:10:34.533Z,98731.00
2023-08-17T04:13:05.951Z,98733.00
2023-08-17T04:15:36.860Z,98737.00
2023-08-17T04:18:07.906Z,98742.00
2023-08-17T04:20:38.874Z,98736.00
2023-08-17T04:23:09.766Z,98738.00
2023-08-17T04:25:40.792Z,98735.00
2023-08-17T04:28:11.791Z,98742.00
2023-08-17T04:30:43.936Z,98748.00
2023-08-17T04:33:14.857Z,98745.00
2023-08-17T04:35:49.212Z,98749.00
2023-08-17T04:38:20.137Z,98746.00
2023-08-17T04:40:51.072Z,98751.00
2023-08-17T04:43:21.948Z,98751.00
2023-08-17T04:45:52.903Z,98746.00
2023-08-17T04:48:23.876Z,98750.00
2023-08-17T04:50:54.848Z,98755.00
2023-08-17T04:53:25.767Z,98764.00
2023-08-17T04:55:56.641Z,98752.00
2023-08-17T04:58:27.538Z,98757.00
2023-08-17T05:00:58.459Z,98762.00
2023-08-17T05:03:33.650Z,98766.00
2023-08-17T05:06:05.379Z,98757.00
2023-08-17T05:08:36.491Z,98756.00
2023-08-17T05:11:07.502Z,98765.00
2023-08-17T05:13:38.507Z,98770.00
2023-08-17T05:16:09.602Z,98764.00
2023-08-17T05:18:40.609Z,98768.00
2023-08-17T05:21:11.514Z,98771.00
2023-08-17T05:23:42.477Z,98770.00
2023-08-17T05:26:16.201Z,98767.00
2023-08-17T05:28:47.556Z,98763.00
2023-08-17T05:31:18.529Z,98770.00
2023-08-17T05:33:49.453Z,98769.00
2023-08-17T05:36:20.415Z,98778.00
2023-08-17T05:38:51.340Z,98772.00
2023-08-17T05:41:22.340Z,98764.00
2023-08-17T05:43:53.261Z,98756.00
2023-08-17T05:46:24.225Z,98760.00
2023-08-17T05:48:55.453Z,98755.00
2023-08-17T05:51:26.577Z,98759.00
2023-08-17T05:53:57.557Z,98756.00
2023-08-17T05:56:29.281Z,98761.00
2023-08-17T05:59:00.599Z,98785.00
2023-08-17T06:01:32.466Z,98773.00
2023-08-17T06:04:04.648Z,98784.00
2023-08-17T06:06:36.874Z,98781.00
2023-08-17T06:09:09.469Z,98781.00
2023-08-17T06:11:40.340Z,98785.00
2023-08-17T06:14:11.554Z,98786.00
2023-08-17T06:16:42.585Z,98783.00
2023-08-17T06:19:13.554Z,98787.00
2023-08-17T06:21:44.542Z,98782.00
2023-08-17T06:24:15.431Z,98791.00
2023-08-17T06:26:46.981Z,98782.00
2023-08-17T06:29:17.854Z,98791.00
2023-08-17T06:31:48.837Z,98778.00
2023-08-17T06:34:19.719Z,98783.00
2023-08-17T06:37:04.490Z,98779.00
2023-08-17T06:39:35.447Z,98781.00
2023-08-17T06:42:06.544Z,98780.00
2023-08-17T06:44:37.462Z,98780.00
2023-08-17T06:47:08.434Z,98779.00
2023-08-17T06:49:39.433Z,98782.00
2023-08-17T06:52:10.329Z,98780.00
2023-08-17T06:54:41.246Z,98785.00
2023-08-17T06:57:12.190Z,98785.00
2023-08-17T06:59:43.218Z,98788.00
2023-08-17T07:02:14.163Z,98786.00
2023-08-17T07:04:45.120Z,98788.00
2023-08-17T07:07:16.072Z,98803.00
2023-08-17T07:09:47.100Z,98783.00
2023-08-17T07:12:18.099Z,98786.00
2023-08-17T07:14:49.073Z,98784.00
2023-08-17T07:17:20.289Z,98787.00
2023-08-17T07:20:13.745Z,98793.00
2023-08-17T07:22:42.133Z,98795.00
2023-08-17T07:25:13.078Z,98793.00
2023-08-17T07:27:44.104Z,98797.00
2023-08-17T07:30:15.033Z,98794.00
2023-08-17T07:32:46.073Z,98788.00
2023-08-17T07:35:17.133Z,98792.00
2023-08-17T07:37:59.521Z,98797.00
2023-08-17T07:40:34.990Z,98787.00
2023-08-17T07:43:06.083Z,98797.00
2023-08-17T07:45:37.146Z,98799.00
2023-08-17T07:48:08.253Z,98803.00
2023-08-17T07:50:39.227Z,98788.00
2023-08-17T07:53:10.148Z,98791.00
2023-08-17T07:55:41.295Z,98795.00
2023-08-17T07:58:12.344Z,98791.00
2023-08-17T08:00:43.605Z,98783.00
2023-08-17T08:03:16.501Z,98783.00
2023-08-17T08:05:47.485Z,98774.00
2023-08-17T08:08:18.736Z,98786.00
2023-08-17T08:10:49.783Z,98773.00
2023-08-17T08:13:20.696Z,98779.00
2023-08-17T08:15:52.086Z,98778.00
2023-08-17T08:18:23.155Z,98778.00
2023-08-17T08:20:54.202Z,98769.00
2023-08-17T08:23:25.152Z,98777.00
2023-08-17T08:25:56.131Z,98775.00
2023-08-17T08:28:27.109Z,98775.00
2023-08-17T08:31:04.316Z,98770.00
2023-08-17T08:33:35.269Z,98768.00
2023-08-17T08:36:07.412Z,98766.00
2023-08-17T08:38:38.405Z,98766.00
2023-08-17T08:41:10.480Z,98776.00
2023-08-17T08:43:41.547Z,98767.00
2023-08-17T08:46:13.565Z,98767.00
2023-08-17T08:48:46.470Z,98771.00
2023-08-17T08:51:24.436Z,98786.00
2023-08-17T08:54:04.208Z,98772.00
2023-08-17T08:56:38.997Z,98765.00
2023-08-17T08:59:10.344Z,98766.00
2023-08-17T09:01:42.179Z,98774.00
2023-08-17T09:04:13.195Z,98770.00
2023-08-17T09:06:45.066Z,98769.00
2023-08-17T09:09:17.982Z,98770.00
2023-08-17T09:11:48.909Z,98772.00
2023-08-17T09:14:19.845Z,98770.00
2023-08-17T09:16:51.261Z,98761.00
2023-08-17T09:19:22.951Z,98762.00
2023-08-17T09:21:54.250Z,98760.00
2023-08-17T09:24:25.371Z,98752.00
2023-08-17T09:26:59.641Z,98761.00
2023-08-17T09:29:38.040Z,98752.00
2023-08-17T09:32:09.313Z,98758.00
2023-08-17T09:34:48.984Z,98755.00
2023-08-17T09:37:20.410Z,98757.00
2023-08-17T09:39:51.430Z,98751.00
2023-08-17T09:42:23.906Z,98747.00
2023-08-17T09:44:56.727Z,98752.00
2023-08-17T09:47:28.322Z,98755.00
2023-08-17T09:49:59.636Z,98753.00
2023-08-17T09:52:31.018Z,98764.00
2023-08-17T09:57:40.361Z,98750.00
2023-08-17T10:00:12.326Z,98750.00
2023-08-17T10:02:52.397Z,98745.00
2023-08-17T10:05:24.387Z,98747.00
2023-08-17T10:07:59.254Z,98744.00
2023-08-17T10:10:35.306Z,98737.00
2023-08-17T10:13:29.067Z,98739.00
2023-08-17T10:19:35.364Z,98741.00
2023-08-17T10:22:19.191Z,98736.00
2023-08-17T10:24:52.077Z,98733.00
2023-08-17T10:27:23.448Z,98734.00
2023-08-17T10:29:55.743Z,98726.00
2023-08-17T10:32:27.693Z,98733.00
2023-08-17T10:34:59.843Z,98731.00
2023-08-17T10:37:31.257Z,98723.00
2023-08-17T10:40:02.223Z,98726.00
2023-08-17T10:42:37.760Z,98725.00
2023-08-17T10:45:32.339Z,98732.00
2023-08-17T10:48:09.821Z,98730.00
2023-08-17T10:50:43.835Z,98725.00
2023-08-17T10:53:19.159Z,98724.00
2023-08-17T10:55:53.163Z,98717.00
2023-08-17T10:58:24.401Z,98726.00
2023-08-17T11:00:57.916Z,98727.00
2023-08-17T11:03:30.560Z,98719.00
2023-08-17T11:06:18.657Z,98720.00
2023-08-17T11:08:57.020Z,98708.00
2023-08-17T11:11:32.587Z,98712.00
2023-08-17T11:14:03.908Z,98714.00
2023-08-17T11:16:34.909Z,98707.00
2023-08-17T11:19:05.876Z,98707.00
2023-08-17T11:21:37.642Z,98705.00
2023-08-17T11:24:11.478Z,98703.00
2023-08-17T11:26:42.578Z,98699.00
2023-08-17T11:29:13.625Z,98696.00
2023-08-17T11:31:44.673Z,98691.00
2023-08-17T11:34:16.544Z,98699.00
2023-08-17T11:36:48.216Z,98694.00
2023-08-17T11:39:22.138Z,98685.00
2023-08-17T11:41:53.753Z,98688.00
2023-08-17T11:44:26.196Z,98689.00
2023-08-17T11:46:57.211Z,98695.00
2023-08-17T11:49:28.129Z,98700.00
2023-08-17T11:51:59.852Z,98711.00
2023-08-17T11:54:34.908Z,98693.00
2023-08-17T11:57:06.049Z,98704.00
2023-08-17T11:59:37.236Z,98701.00
2023-08-17T12:02:08.606Z,98707.00
2023-08-17T12:04:39.706Z,98718.00
2023-08-17T12:07:10.785Z,98719.00
2023-08-17T12:09:42.477Z,98713.00
2023-08-17T12:12:13.754Z,98716.00
2023-08-17T12:14:45.446Z,98709.00
2023-08-17T12:17:19.200Z,98721.00
2023-08-17T12:19:51.797Z,98726.00
2023-08-17T12:22:27.023Z,98732.00
2023-08-17T12:24:58.172Z,98737.00
2023-08-17T12:27:29.478Z,98724.00
2023-08-17T12:30:00.483Z,98718.00
2023-08-17T12:32:31.423Z,98710.00
2023-08-17T12:35:02.443Z,98703.00
2023-08-17T12:37:33.366Z,98720.00
2023-08-17T12:40:04.978Z,98723.00
2023-08-17T12:42:35.903Z,98716.00
2023-08-17T12:45:07.352Z,98709.00
2023-08-17T12:47:39.224Z,98723.00
2023-08-17T12:50:10.615Z,98741.00
2023-08-17T12:52:47.216Z,98741.00
2023-08-17T12:55:18.500Z,98765.00
2023-08-17T12:57:49.902Z,98753.00
2023-08-17T13:00:20.818Z,98743.00
2023-08-17T13:02:52.689Z,98754.00
2023-08-17T13:05:23.978Z,98743.00
2023-08-17T13:07:54.973Z,98746.00
2023-08-17T13:10:25.992Z,98735.00
2023-08-17T13:13:00.138Z,98748.00
2023-08-17T13:15:33.709Z,98753.00
2023-08-17T13:18:05.181Z,98763.00
2023-08-17T13:20:37.607Z,98776.00
2023-08-17T13:23:08.626Z,98768.00
2023-08-17T13:25:39.680Z,98771.00
2023-08-17T13:28:10.936Z,98780.00
2023-08-17T13:30:43.839Z,98763.00
2023-08-17T13:33:15.076Z,98752.00
2023-08-17T13:35:46.135Z,98735.00
2023-08-17T13:38:17.081Z,98731.00
2023-08-17T13:40:48.104Z,98731.00
2023-08-17T13:43:19.027Z,98730.00
2023-08-17T13:45:50.059Z,98727.00
2023-08-17T13:48:21.078Z,98731.00
2023-08-17T13:50:51.986Z,98723.00
2023-08-17T13:53:22.915Z,98731.00
2023-08-17T13:55:53.941Z,98717.00
2023-08-17T13:58:24.887Z,98719.00
2023-08-17T14:00:55.883Z,98706.00
2023-08-17T14:03:26.979Z,98711.00
2023-08-17T14:05:58.015Z,98709.00
2023-08-17T14:08:29.975Z,98712.00
2023-08-17T14:11:01.538Z,98734.00
2023-08-17T14:13:32.563Z,98712.00
2023-08-17T14:16:04.505Z,98713.00
2023-08-17T14:18:35.530Z,98710.00
2023-08-17T14:21:06.457Z,98699.00
2023-08-17T14:23:37.381Z,98695.00
2023-08-17T14:26:08.610Z,98692.00
2023-08-17T14:28:44.457Z,98690.00
2023-08-17T14:31:18.704Z,98696.00
2023-08-17T14:33:50.578Z,98689.00
2023-08-17T14:36:21.717Z,98694.00
2023-08-17T14:38:52.747Z,98690.00
2023-08-17T14:41:23.662Z,98694.00
2023-08-17T14:43:54.596Z,98693.00
2023-08-17T14:46:26.923Z,98682.00
2023-08-17T14:48:58.585Z,98677.00
2023-08-17T14:51:32.134Z,98672.00
2023-08-17T14:54:03.323Z,98687.00
2023-08-17T14:56:34.329Z,98683.00
2023-08-17T14:59:10.314Z,98668.00
2023-08-17T15:01:41.798Z,98661.00
2023-08-17T15:04:12.800Z,98662.00
2023-08-17T15:06:43.910Z,98664.00
2023-08-17T15:09:15.605Z,98661.00
2023-08-17T15:11:47.054Z,98675.00
2023-08-17T15:14:17.920Z,98656.00
2023-08-17T15:16:49.048Z,98661.00
2023-08-17T15:19:34.546Z,98664.00
2023-08-17T15:22:15.531Z,98675.00
2023-08-17T15:24:47.467Z,98660.00
2023-08-17T15:27:18.458Z,98655.00
2023-08-17T15:29:49.559Z,98648.00
2023-08-17T15:32:20.705Z,98639.00
2023-08-17T15:34:53.330Z,98630.00
2023-08-17T15:37:25.462Z,98628.00
2023-08-17T15:39:56.835Z,98617.00
2023-08-17T15:42:27.983Z,98604.00
2023-08-17T15:44:59.228Z,98595.00
2023-08-17T15:47:30.492Z,98594.00
2023-08-17T15:50:02.288Z,98592.00
2023-08-17T15:52:33.214Z,98591.00
2023-08-17T15:55:04.454Z,98609.00
2023-08-17T15:57:35.461Z,98600.00
2023-08-17T16:00:07.405Z,98627.00
2023-08-17T16:02:38.399Z,98623.00
2023-08-17T16:05:09.613Z,98628.00
2023-08-17T16:07:40.536Z,98645.00
2023-08-17T16:10:11.471Z,98671.00
2023-08-17T16:12:43.318Z,98659.00
2023-08-17T16:15:14.404Z,98659.00
2023-08-17T16:17:45.452Z,98661.00
2023-08-17T16:20:16.486Z,98657.00
2023-08-17T16:22:47.464Z,98652.00
2023-08-17T16:25:19.481Z,98664.00
2023-08-17T16:27:50.440Z,98661.00
2023-08-17T16:30:21.334Z,98657.00
2023-08-17T16:32:52.545Z,98647.00
2023-08-17T16:37:59.659Z,98651.00
2023-08-17T16:40:38.153Z,98656.00
2023-08-17T16:43:09.982Z,98646.00
2023-08-17T16:45:41.906Z,98649.00
2023-08-17T16:48:12.878Z,98637.00
2023-08-17T16:50:44.092Z,98649.00
2023-08-17T16:53:14.985Z,98651.00
2023-08-17T16:55:54.076Z,98653.00
2023-08-17T16:58:25.678Z,98659.00
2023-08-17T17:00:56.802Z,98662.00
2023-08-17T17:03:27.804Z,98673.00
2023-08-17T17:05:58.697Z,98677.00
2023-08-17T17:08:29.789Z,98676.00
2023-08-17T17:11:00.657Z,98669.00
2023-08-17T17:13:31.853Z,98684.00
2023-08-17T17:16:03.109Z,98677.00
2023-08-17T17:18:34.062Z,98668.00
2023-08-17T17:21:07.647Z,98677.00
2023-08-17T17:23:38.539Z,98681.00
2023-08-17T17:26:09.504Z,98682.00
2023-08-17T17:28:40.424Z,98682.00
2023-08-17T17:31:11.352Z,98687.00
2023-08-17T17:33:42.252Z,98692.00
2023-08-17T17:36:13.199Z,98690.00
2023-08-17T17:38:44.173Z,98702.00
2023-08-17T17:41:15.220Z,98695.00
2023-08-17T17:43:46.352Z,98696.00
2023-08-17T17:46:19.875Z,98687.00
2023-08-17T17:48:50.884Z,98683.00
2023-08-17T17:51:22.240Z,98698.00
2023-08-17T17:53:53.194Z,98698.00
2023-08-17T17:56:44.214Z,98695.00
2023-08-17T17:59:15.224Z,98683.00
2023-08-17T18:01:46.272Z,98677.00
2023-08-17T18:04:18.184Z,98683.00
2023-08-17T18:06:49.252Z,98683.00
2023-08-17T18:09:22.452Z,98683.00
2023-08-17T18:11:53.328Z,98682.00
2023-08-17T18:14:24.324Z,98696.00
2023-08-17T18:16:55.256Z,98694.00
2023-08-17T18:19:26.242Z,98696.00
2023-08-17T18:21:57.169Z,98695.00
2023-08-17T18:24:28.276Z,98694.00
2023-08-17T18:26:59.341Z,98699.00
2023-08-17T18:29:30.433Z,98700.00
2023-08-17T18:32:01.462Z,98700.00
2023-08-17T18:34:32.365Z,98697.00
2023-08-17T18:37:03.608Z,98697.00
2023-08-17T18:39:34.485Z,98685.00
2023-08-17T18:42:05.819Z,98688.00
2023-08-17T18:44:36.717Z,98685.00
2023-08-17T18:47:07.656Z,98683.00
2023-08-17T18:49:38.588Z,98683.00
2023-08-17T18:52:09.531Z,98678.00
2023-08-17T18:54:40.628Z,98683.00
2023-08-17T18:57:12.187Z,98686.00
2023-08-17T18:59:43.052Z,98687.00
2023-08-17T19:02:13.977Z,98693.00
2023-08-17T19:04:46.742Z,98691.00
2023-08-17T19:07:18.686Z,98684.00
2023-08-17T19:09:49.632Z,98697.00
2023-08-17T19:12:20.753Z,98705.00
2023-08-17T19:14:51.692Z,98701.00
2023-08-17T19:17:22.740Z,98711.00
2023-08-17T19:19:53.738Z,98706.00
2023-08-17T19:22:24.663Z,98717.00
2023-08-17T19:24:55.607Z,98713.00
2023-08-17T19:27:26.795Z,98738.00
2023-08-17T19:29:58.178Z,98725.00
2023-08-17T19:32:29.122Z,98729.00
2023-08-17T19:35:00.167Z,98725.00
2023-08-17T19:37:33.344Z,98724.00
2023-08-17T19:40:05.276Z,98730.00
2023-08-17T19:42:36.327Z,98749.00
2023-08-17T19:45:07.636Z,98729.00
2023-08-17T19:47:38.595Z,98723.00
2023-08-17T19:50:10.718Z,98732.00
2023-08-17T19:52:41.661Z,98724.00
2023-08-17T19:55:14.041Z,98726.00
2023-08-17T19:57:45.050Z,98732.00
2023-08-17T20:00:16.423Z,98737.00
2023-08-17T20:02:47.582Z,98732.00
2023-08-17T20:05:18.768Z,98723.00
2023-08-17T20:07:49.789Z,98733.00
2023-08-17T20:10:20.923Z,98726.00
2023-08-17T20:12:51.870Z,98738.00
2023-08-17T20:15:22.872Z,98718.00
2023-08-17T20:17:53.928Z,98726.00
2023-08-17T20:20:24.907Z,98730.00
2023-08-17T20:22:55.946Z,98729.00
2023-08-17T20:25:26.925Z,98734.00
2023-08-17T20:27:57.900Z,98724.00
2023-08-17T20:30:28.812Z,98730.00
2023-08-17T20:33:00.244Z,98726.00
2023-08-17T20:35:31.161Z,98731.00
2023-08-17T20:38:02.095Z,98732.00
2023-08-17T20:40:33.111Z,98727.00
2023-08-17T20:43:04.291Z,98727.00
2023-08-17T20:45:39.344Z,98723.00
2023-08-17T20:48:11.481Z,98725.00
2023-08-17T20:50:47.621Z,98732.00
2023-08-17T20:53:18.709Z,98720.00
2023-08-17T20:55:49.700Z,98719.00
2023-08-17T20:58:20.769Z,98709.00
2023-08-17T21:00:51.863Z,98714.00
2023-08-17T21:03:23.366Z,98713.00
2023-08-17T21:05:54.725Z,98717.00
2023-08-17T21:08:25.614Z,98708.00
2023-08-17T21:10:56.512Z,98712.00
2023-08-17T21:13:27.409Z,98712.00
2023-08-17T21:16:09.340Z,98707.00
2023-08-17T21:18:40.245Z,98713.00
2023-08-17T21:21:11.155Z,98712.00
2023-08-17T21:23:42.063Z,98711.00
2023-08-17T21:26:12.978Z,98706.00
2023-08-17T21:28:43.866Z,98705.00
2023-08-17T21:31:15.426Z,98708.00
2023-08-17T21:33:46.380Z,98705.00
2023-08-17T21:36:17.332Z,98698.00
2023-08-17T21:38:48.350Z,98697.00
2023-08-17T21:41:19.274Z,98703.00
2023-08-17T21:43:53.164Z,98704.00
2023-08-17T21:46:24.407Z,98698.00
2023-08-17T21:48:55.398Z,98716.00
2023-08-17T21:51:26.347Z,98707.00
2023-08-17T21:53:59.492Z,98714.00
2023-08-17T21:56:30.380Z,98712.00
2023-08-17T21:59:01.308Z,98705.00
2023-08-17T22:01:32.274Z,98698.00
2023-08-17T22:04:03.356Z,98697.00
2023-08-17T22:06:34.342Z,98697.00
2023-08-17T22:09:05.389Z,98698.00
2023-08-17T22:11:36.314Z,98695.00
2023-08-17T22:14:07.260Z,98694.00
2023-08-17T22:16:38.475Z,98699.00
2023-08-17T22:19:09.347Z,98696.00
2023-08-17T22:21:40.294Z,98703.00
2023-08-17T22:24:11.312Z,98708.00
2023-08-17T22:26:42.366Z,98716.00
2023-08-17T22:29:13.580Z,98711.00
2023-08-17T22:31:44.529Z,98708.00
2023-08-17T22:34:15.475Z,98716.00
2023-08-17T22:36:46.417Z,98719.00
2023-08-17T22:39:17.326Z,98712.00
2023-08-17T22:41:48.251Z,98714.00
2023-08-17T22:44:19.243Z,98709.00
2023-08-17T22:46:50.244Z,98710.00
2023-08-17T22:49:21.273Z,98704.00
2023-08-17T22:51:52.162Z,98720.00
2023-08-17T22:54:23.072Z,98699.00
2023-08-17T22:56:56.337Z,98698.00
2023-08-17T22:59:27.318Z,98699.00
2023-08-17T23:01:58.430Z,98711.00
2023-08-17T23:04:29.548Z,98703.00
2023-08-17T23:07:00.622Z,98698.00
2023-08-17T23:09:31.645Z,98712.00
2023-08-17T23:12:06.082Z,98702.00
2023-08-17T23:14:37.092Z,98706.00
2023-08-17T23:17:08.038Z,98704.00
2023-08-17T23:19:38.945Z,98700.00
2023-08-17T23:22:09.891Z,98696.00
2023-08-17T23:24:40.793Z,98694.00
2023-08-17T23:27:11.823Z,98693.00
2023-08-17T23:29:42.712Z,98697.00
2023-08-17T23:32:25.324Z,98697.00
2023-08-17T23:34:58.668Z,98696.00
2023-08-17T23:37:38.991Z,98701.00
2023-08-17T23:40:10.263Z,98704.00
2023-08-17T23:42:42.914Z,98710.00
2023-08-17T23:45:14.458Z,98694.00
2023-08-17T23:47:45.424Z,98698.00
2023-08-17T23:50:16.443Z,98699.00
2023-08-17T23:52:47.363Z,98695.00
2023-08-17T23:55:18.756Z,98698.00
2023-08-17T23:57:49.736Z,98696.00
